Time;durP1;ratioP1;P1;durP2;ratioP2;P2;SDS_P1;SDS_P2;PMS_P1;PMS_P2;Temp;Humidity;BMP_temperature;BMP_pressure;BME280_temperature;BME280_humidity;BME280_pressure;Samples;Min_cycle;Max_cycle;Signal;HPM_P1;HPM_P2
2021/09/10 05:19:19;;;;;;;;;6.50;4.75;;;;;22.10;68.58;101087.22;5216865;23;45751;-78
2021/09/10 05:21:45;;;;;;;;;6.00;5.00;;;;;22.11;67.98;101080.06;4883601;29;46110;-81
2021/09/10 05:24:10;;;;;;;;;5.75;5.75;;;;;22.11;67.99;101083.59;4901030;29;46487;-80
2021/09/10 05:26:35;;;;;;;;;5.25;4.50;;;;;22.16;68.45;101088.56;4899727;29;45239;-79
2021/09/10 05:29:01;;;;;;;;;6.25;5.50;;;;;22.21;68.18;101097.09;4901576;29;45414;-80
2021/09/10 05:31:26;;;;;;;;;6.00;4.00;;;;;22.20;67.88;101084.69;4901170;29;45569;-80
2021/09/10 05:33:52;;;;;;;;;7.25;5.25;;;;;22.23;67.71;101096.97;4902188;29;45655;-80
2021/09/10 05:36:17;;;;;;;;;5.75;5.75;;;;;22.18;68.03;101091.13;4885349;29;45555;-79
2021/09/10 05:38:43;;;;;;;;;8.00;6.00;;;;;22.21;67.80;101090.91;4902585;29;45415;-79
2021/09/10 05:41:08;;;;;;;;;6.00;5.25;;;;;22.22;67.88;101100.66;4901172;29;45555;-79
2021/09/10 05:43:34;;;;;;;;;6.00;5.00;;;;;22.22;67.84;101101.50;4902340;29;46270;-80
2021/09/10 05:45:59;;;;;;;;;6.00;5.25;;;;;22.26;68.06;101105.66;4902302;29;45380;-79
2021/09/10 05:48:24;;;;;;;;;6.25;5.25;;;;;22.30;67.62;101110.78;4902661;29;45249;-79
2021/09/10 05:50:50;;;;;;;;;6.25;4.75;;;;;22.32;67.92;101108.81;4902048;29;45526;-79
2021/09/10 05:53:17;;;;;;;;;5.75;4.50;;;;;22.31;67.79;101107.09;4900947;28;45458;-79
2021/09/10 05:55:42;;;;;;;;;5.00;5.00;;;;;22.32;67.38;101111.50;4903729;28;45476;-79
2021/09/10 05:58:08;;;;;;;;;7.75;6.25;;;;;22.34;67.83;101122.94;4904153;29;45588;-79
2021/09/10 06:00:34;;;;;;;;;8.50;5.00;;;;;22.35;67.80;101119.25;4903830;29;45453;-79
2021/09/10 06:03:00;;;;;;;;;6.00;6.00;;;;;22.31;67.93;101115.13;4900370;29;45478;-79
2021/09/10 06:05:25;;;;;;;;;7.00;6.00;;;;;22.32;67.17;101120.34;4901917;29;45362;-79
2021/09/10 06:07:51;;;;;;;;;6.00;6.00;;;;;22.32;67.64;101120.34;4904041;29;45423;-79
2021/09/10 06:10:18;;;;;;;;;5.00;4.00;;;;;22.33;67.75;101121.22;4903775;29;45445;-79
2021/09/10 06:12:44;;;;;;;;;5.75;5.75;;;;;22.37;67.56;101130.72;4904034;29;45373;-80
2021/09/10 06:15:10;;;;;;;;;5.25;4.00;;;;;22.34;67.82;101133.66;4886830;29;45949;-79
2021/09/10 06:17:36;;;;;;;;;5.75;4.75;;;;;22.35;67.51;101136.19;4903096;29;45441;-79
2021/09/10 06:20:01;;;;;;;;;6.75;6.25;;;;;22.37;67.47;101139.59;4900470;29;45342;-80
2021/09/10 06:22:28;;;;;;;;;6.75;6.50;;;;;22.38;67.53;101143.13;4905148;29;46352;-78
2021/09/10 06:24:53;;;;;;;;;7.25;7.25;;;;;22.38;67.14;101140.47;4905020;29;45482;-77
2021/09/10 06:27:19;;;;;;;;;8.25;6.00;;;;;22.30;67.80;101132.19;4904684;29;45258;-77
2021/09/10 06:29:44;;;;;;;;;6.00;5.75;;;;;22.24;68.02;101136.19;4905361;29;45244;-77
2021/09/10 06:32:09;;;;;;;;;8.25;6.00;;;;;22.12;68.01;101137.97;4904676;29;45535;-77
2021/09/10 06:34:35;;;;;;;;;5.75;4.50;;;;;22.07;68.25;101142.81;4904761;29;45254;-77
2021/09/10 06:37:00;;;;;;;;;5.50;5.50;;;;;22.11;67.80;101147.81;4904801;29;45184;-77
2021/09/10 06:39:25;;;;;;;;;7.50;5.25;;;;;22.07;68.40;101149.03;4905144;29;45389;-77
2021/09/10 06:41:51;;;;;;;;;7.00;5.00;;;;;22.03;68.33;101143.03;4904710;29;45277;-77
2021/09/10 06:44:16;;;;;;;;;5.75;5.75;;;;;22.02;68.75;101152.06;4904834;29;45245;-76
2021/09/10 06:46:42;;;;;;;;;7.75;7.00;;;;;22.09;68.50;101155.13;4887471;29;45587;-77
2021/09/10 06:49:08;;;;;;;;;6.75;6.75;;;;;22.17;68.37;101159.91;4904467;29;45288;-77
2021/09/10 06:51:33;;;;;;;;;7.75;7.00;;;;;22.25;68.61;101159.28;4904948;29;46235;-77
2021/09/10 06:53:59;;;;;;;;;7.25;7.25;;;;;22.23;68.40;101164.75;4904381;29;45299;-77
2021/09/10 06:56:24;;;;;;;;;6.75;6.75;;;;;22.26;67.61;101163.69;4904978;29;45608;-77
2021/09/10 06:58:49;;;;;;;;;7.75;6.50;;;;;22.24;67.82;101169.16;4904455;29;46653;-77
2021/09/10 07:01:15;;;;;;;;;5.00;4.25;;;;;22.26;67.67;101179.75;4904727;29;45338;-77
2021/09/10 07:03:40;;;;;;;;;8.75;7.50;;;;;22.29;67.86;101167.94;4903452;29;45427;-79
2021/09/10 07:06:06;;;;;;;;;5.00;5.00;;;;;22.30;67.88;101181.22;4903571;29;45869;-76
2021/09/10 07:08:32;;;;;;;;;7.50;7.50;;;;;22.32;68.19;101173.06;4904649;29;45358;-77
2021/09/10 07:11:01;;;;;;;;;9.00;7.00;;;;;22.33;67.48;101185.47;4904167;29;45296;-77
2021/09/10 07:13:26;;;;;;;;;5.75;5.50;;;;;22.37;67.46;101189.66;4904723;29;45189;-77
2021/09/10 07:15:52;;;;;;;;;6.00;5.00;;;;;22.37;67.44;101176.25;4904377;29;45151;-76
2021/09/10 07:18:17;;;;;;;;;5.25;5.25;;;;;22.42;67.79;101179.41;4904048;29;45337;-77
2021/09/10 07:20:42;;;;;;;;;8.00;7.25;;;;;22.44;67.38;101185.53;4903882;29;46453;-77
2021/09/10 07:23:08;;;;;;;;;9.00;6.00;;;;;22.49;67.39;101185.16;4904746;29;45439;-77
2021/09/10 07:25:33;;;;;;;;;5.25;5.25;;;;;22.47;67.14;101195.16;4903955;29;45336;-77
2021/09/10 07:27:59;;;;;;;;;14.00;9.00;;;;;22.38;67.64;101183.31;4902976;29;45418;-77
2021/09/10 07:30:24;;;;;;;;;9.25;6.25;;;;;22.38;67.71;101183.31;4903040;29;45537;-78
2021/09/10 07:32:49;;;;;;;;;11.00;7.25;;;;;22.42;67.29;101189.28;4903751;29;45510;-77
2021/09/10 07:35:15;;;;;;;;;7.00;6.50;;;;;22.45;67.25;101183.69;4903063;29;45464;-78
2021/09/10 07:37:40;;;;;;;;;6.00;6.00;;;;;22.47;67.11;101177.22;4886439;29;45921;-77
2021/09/10 07:40:06;;;;;;;;;7.00;7.00;;;;;22.54;67.06;101191.03;4903800;29;46447;-77
2021/09/10 07:42:32;;;;;;;;;8.25;6.00;;;;;22.55;67.20;101194.53;4904023;29;45445;-77
2021/09/10 07:44:57;;;;;;;;;10.75;9.25;;;;;22.54;67.38;101183.00;4903102;29;45496;-76
2021/09/10 07:47:23;;;;;;;;;5.00;4.25;;;;;22.54;67.09;101192.84;4902658;29;45395;-77
2021/09/10 07:49:48;;;;;;;;;6.50;6.50;;;;;22.51;66.91;101201.09;4885057;28;46265;-77
2021/09/10 07:52:14;;;;;;;;;6.25;5.25;;;;;22.45;67.01;101205.97;4903585;29;45438;-74
2021/09/10 07:54:39;;;;;;;;;5.75;5.75;;;;;22.41;66.80;101201.81;4902873;29;45530;-75
2021/09/10 07:57:05;;;;;;;;;5.50;4.75;;;;;22.48;67.06;101208.41;4903469;29;45271;-74
2021/09/10 07:59:30;;;;;;;;;6.00;5.50;;;;;22.53;67.00;101221.44;4903174;29;45272;-74
2021/09/10 08:01:55;;;;;;;;;8.75;7.00;;;;;22.57;66.70;101216.72;4903162;29;45236;-74
2021/09/10 08:04:21;;;;;;;;;8.25;5.75;;;;;22.63;66.56;101215.38;4903095;29;45177;-74
2021/09/10 08:06:46;;;;;;;;;10.75;6.25;;;;;22.64;66.82;101211.72;4903156;29;45313;-75
2021/09/10 08:09:12;;;;;;;;;8.00;6.00;;;;;22.65;66.61;101221.47;4903015;29;45646;-74
2021/09/10 08:11:37;;;;;;;;;7.00;6.25;;;;;22.70;66.83;101228.22;4903045;29;45478;-74
2021/09/10 08:14:07;;;;;;;;;8.00;7.00;;;;;22.75;66.17;101225.16;4903501;29;45406;-74
2021/09/10 08:16:33;;;;;;;;;6.25;6.25;;;;;22.79;65.66;101229.31;4903350;29;45414;-74
2021/09/10 08:18:58;;;;;;;;;9.00;6.75;;;;;22.80;65.96;101222.13;4900725;29;45553;-74
2021/09/10 08:21:24;;;;;;;;;6.00;6.00;;;;;22.87;65.74;101234.06;4902219;29;45371;-75
2021/09/10 08:23:49;;;;;;;;;7.00;5.25;;;;;22.88;65.65;101230.44;4902405;29;45490;-75
2021/09/10 08:26:14;;;;;;;;;5.00;5.00;;;;;22.89;66.06;101221.41;4903103;29;45452;-74
2021/09/10 08:28:40;;;;;;;;;4.75;4.75;;;;;22.91;65.47;101227.53;4902605;29;45499;-75
2021/09/10 08:31:05;;;;;;;;;5.75;5.75;;;;;22.97;65.37;101238.69;4901982;28;45431;-74
2021/09/10 08:33:30;;;;;;;;;11.75;5.75;;;;;22.97;65.42;101231.53;4902636;29;45281;-74
2021/09/10 08:35:56;;;;;;;;;8.25;7.00;;;;;22.97;65.02;101233.34;4903588;29;45528;-74
2021/09/10 08:38:21;;;;;;;;;3.50;2.50;;;;;23.01;65.13;101232.16;4902744;29;46368;-74
2021/09/10 08:40:47;;;;;;;;;9.50;6.00;;;;;23.14;64.70;101237.38;4902911;29;45192;-74
2021/09/10 08:43:13;;;;;;;;;5.75;5.50;;;;;23.29;64.68;101240.66;4903722;29;45170;-74
2021/09/10 08:45:39;;;;;;;;;5.25;5.25;;;;;23.37;64.32;101238.25;4902673;29;45648;-76
2021/09/10 08:48:06;;;;;;;;;9.50;6.75;;;;;23.52;63.93;101235.31;4902919;29;46646;-75
2021/09/10 08:50:31;;;;;;;;;7.75;6.00;;;;;23.71;63.86;101241.88;4885588;29;46217;-74
2021/09/10 08:52:56;;;;;;;;;5.00;5.00;;;;;23.92;63.81;101246.47;4886435;29;45531;-74
2021/09/10 08:55:22;;;;;;;;;5.00;5.00;;;;;24.04;60.91;101240.06;4885365;29;46193;-74
2021/09/10 08:57:53;;;;;;;;;6.00;6.00;;;;;24.10;62.76;101244.06;4901695;29;46159;-74
2021/09/10 09:00:28;;;;;;;;;5.50;4.75;;;;;24.15;62.85;101241.03;4902715;29;45463;-74
2021/09/10 09:03:01;;;;;;;;;5.75;5.75;;;;;24.17;62.42;101256.00;4903183;29;45311;-74
2021/09/10 09:05:29;;;;;;;;;6.25;6.00;;;;;24.11;61.17;101242.22;4885627;29;46275;-74
2021/09/10 09:08:11;;;;;;;;;6.00;6.00;;;;;24.07;61.76;101255.09;4885646;29;47041;-74
2021/09/10 09:10:57;;;;;;;;;7.25;6.00;;;;;24.02;61.88;101257.28;4902287;29;45499;-74
2021/09/10 09:13:35;;;;;;;;;7.25;6.25;;;;;24.03;61.81;101257.16;4902495;29;45302;-74
2021/09/10 09:16:23;;;;;;;;;5.00;4.25;;;;;24.08;62.09;101259.44;4888333;29;45980;-74
2021/09/10 09:18:54;;;;;;;;;6.25;6.25;;;;;24.07;61.51;101254.22;4899339;29;46373;-74
2021/09/10 09:21:25;;;;;;;;;7.75;5.25;;;;;24.09;61.56;101246.88;4901599;29;45296;-74
2021/09/10 09:23:52;;;;;;;;;5.00;4.50;;;;;24.21;61.27;101256.59;4901222;29;45315;-74
2021/09/10 09:26:27;;;;;;;;;4.50;4.25;;;;;24.33;60.90;101248.50;4901793;29;45352;-75
2021/09/10 09:29:10;;;;;;;;;4.25;4.00;;;;;24.37;60.04;101252.66;4901736;29;45376;-74
2021/09/10 09:31:37;;;;;;;;;6.00;6.00;;;;;24.38;60.24;101257.03;4905650;29;45312;-74
2021/09/10 09:34:02;;;;;;;;;6.00;6.00;;;;;24.38;60.49;101259.72;4887448;29;45291;-74
2021/09/10 09:36:29;;;;;;;;;3.00;3.00;;;;;24.40;59.79;101263.13;4904757;29;45375;-75
2021/09/10 09:38:55;;;;;;;;;5.50;5.50;;;;;24.40;59.82;101263.13;4888333;29;48397;-75
2021/09/10 09:41:22;;;;;;;;;5.75;5.75;;;;;24.38;60.21;101262.41;4888118;29;45313;-74
2021/09/10 09:43:50;;;;;;;;;5.00;5.00;;;;;24.42;60.00;101260.34;4904409;29;45400;-74
2021/09/10 09:46:21;;;;;;;;;6.50;6.50;;;;;24.56;60.18;101248.41;4905437;29;45165;-74
2021/09/10 09:48:49;;;;;;;;;7.00;7.00;;;;;24.70;59.87;101255.28;4904693;29;46288;-75
2021/09/10 09:51:16;;;;;;;;;4.25;4.25;;;;;24.81;59.47;101257.91;4905032;29;45532;-75
2021/09/10 09:53:43;;;;;;;;;4.25;4.25;;;;;24.90;57.71;101258.09;4888545;29;45208;-74
2021/09/10 09:56:08;;;;;;;;;6.00;5.25;;;;;24.88;58.42;101257.38;4895404;29;45400;-74
2021/09/10 09:58:35;;;;;;;;;4.50;4.00;;;;;24.86;59.14;101253.97;4904087;29;46152;-74
2021/09/10 10:01:02;;;;;;;;;4.00;4.00;;;;;24.86;58.34;101251.28;4905111;29;45624;-74
2021/09/10 10:03:28;;;;;;;;;5.00;5.00;;;;;24.85;58.55;101255.78;4904314;29;45224;-74
2021/09/10 10:06:02;;;;;;;;;4.00;4.00;;;;;24.80;58.69;101248.13;4886537;29;47086;-74
2021/09/10 10:08:37;;;;;;;;;8.75;8.00;;;;;24.72;58.23;101259.53;4904926;29;45491;-75
2021/09/10 10:11:08;;;;;;;;;7.00;6.75;;;;;24.69;57.07;101249.03;4904895;29;45724;-74
2021/09/10 10:13:35;;;;;;;;;8.25;7.25;;;;;24.73;57.98;101260.41;4905188;29;45354;-75
2021/09/10 10:16:00;;;;;;;;;6.25;6.00;;;;;24.80;58.22;101252.66;4905350;29;45336;-74
2021/09/10 10:18:40;;;;;;;;;4.00;4.00;;;;;24.92;56.91;101254.28;4904807;29;45431;-75
2021/09/10 10:21:08;;;;;;;;;6.00;6.00;;;;;24.98;58.02;101249.34;4904695;29;45543;-75
2021/09/10 10:23:43;;;;;;;;;8.00;6.75;;;;;25.08;57.87;101249.44;4905156;29;45402;-75
2021/09/10 10:26:36;;;;;;;;;3.75;3.75;;;;;25.12;57.62;101243.66;4905173;29;45518;-75
2021/09/10 10:29:07;;;;;;;;;7.00;6.00;;;;;25.22;57.23;101242.84;4893622;29;45289;-74
2021/09/10 10:31:56;;;;;;;;;5.25;5.00;;;;;25.34;56.72;101240.91;4904767;29;45312;-74
2021/09/10 10:34:22;;;;;;;;;6.00;4.00;;;;;25.34;56.63;101230.13;4904741;29;45189;-75
2021/09/10 10:36:47;;;;;;;;;5.00;5.00;;;;;25.29;56.54;101227.84;4904605;29;45397;-75
2021/09/10 10:39:13;;;;;;;;;6.50;6.50;;;;;25.22;56.36;101235.63;4905301;29;46381;-75
2021/09/10 10:41:52;;;;;;;;;5.75;4.50;;;;;25.06;56.28;101233.44;4886612;29;45679;-75
2021/09/10 10:44:32;;;;;;;;;4.25;2.75;;;;;24.88;56.25;101228.66;4905195;29;45354;-75
2021/09/10 10:47:12;;;;;;;;;5.25;5.25;;;;;24.70;56.03;101237.31;4904582;29;45506;-75
2021/09/10 10:49:39;;;;;;;;;4.00;4.00;;;;;24.52;56.58;101238.91;4903487;29;45562;-75
2021/09/10 10:52:27;;;;;;;;;5.75;3.75;;;;;24.33;56.34;101230.56;4888043;29;45316;-75
2021/09/10 10:55:18;;;;;;;;;5.25;4.75;;;;;24.24;56.77;101228.63;4892209;29;45550;-75
2021/09/10 10:57:44;;;;;;;;;4.50;4.50;;;;;24.14;57.09;101229.41;4904668;29;45253;-75
2021/09/10 11:00:28;;;;;;;;;5.00;3.00;;;;;24.18;56.85;101224.63;4904220;29;46203;-75
2021/09/10 11:03:16;;;;;;;;;3.50;3.50;;;;;24.27;56.77;101223.88;4904368;29;45285;-75
2021/09/10 11:05:43;;;;;;;;;6.00;4.00;;;;;24.33;56.16;101216.28;4903856;29;45250;-75
2021/09/10 11:08:09;;;;;;;;;6.75;5.00;;;;;24.46;56.62;101216.97;4904498;29;45490;-75
2021/09/10 11:10:35;;;;;;;;;4.25;4.25;;;;;24.57;56.57;101217.88;4904629;29;46850;-74
2021/09/10 11:13:01;;;;;;;;;5.00;5.00;;;;;24.67;56.56;101212.56;4886961;29;47138;-74
2021/09/10 11:15:32;;;;;;;;;5.00;4.50;;;;;24.72;56.61;101211.16;4904532;29;45518;-75
2021/09/10 11:18:07;;;;;;;;;7.25;4.00;;;;;24.78;55.93;101206.25;4903027;29;45496;-75
2021/09/10 11:20:38;;;;;;;;;5.00;4.00;;;;;24.78;55.46;101209.78;4903710;29;47545;-75
2021/09/10 11:23:07;;;;;;;;;4.00;4.00;;;;;24.80;55.36;101202.44;4904203;29;45288;-75
2021/09/10 11:25:34;;;;;;;;;3.50;3.50;;;;;24.84;55.78;101205.72;4886770;29;45509;-75
2021/09/10 11:28:06;;;;;;;;;6.50;5.00;;;;;24.94;55.45;101211.97;4904146;29;45500;-74
2021/09/10 11:30:31;;;;;;;;;3.00;3.00;;;;;25.06;53.34;101203.88;4903786;29;46471;-74
2021/09/10 11:32:58;;;;;;;;;2.75;2.75;;;;;25.22;54.05;101200.66;4903785;29;45431;-75
2021/09/10 11:35:26;;;;;;;;;5.75;4.00;;;;;25.42;54.52;101199.84;4887158;29;45249;-75
2021/09/10 11:38:01;;;;;;;;;4.50;2.75;;;;;25.53;53.26;101202.44;4886711;29;46170;-75
2021/09/10 11:40:39;;;;;;;;;4.00;4.00;;;;;25.66;53.97;101209.38;4903901;29;45513;-75
2021/09/10 11:43:04;;;;;;;;;4.75;2.50;;;;;25.61;53.20;101202.59;4904226;29;45416;-75
2021/09/10 11:45:34;;;;;;;;;3.75;3.25;;;;;25.54;54.33;101211.34;4903399;29;45222;-75
2021/09/10 11:48:00;;;;;;;;;4.50;4.50;;;;;25.49;51.86;101201.00;4902451;29;45378;-75
2021/09/10 11:50:25;;;;;;;;;3.75;3.75;;;;;25.43;53.12;101201.56;4902873;29;46545;-75
2021/09/10 11:52:51;;;;;;;;;5.25;4.00;;;;;25.30;53.62;101202.66;4899750;29;45707;-74
2021/09/10 11:55:19;;;;;;;;;4.25;4.25;;;;;25.08;53.38;101199.22;4904000;28;45447;-75
2021/09/10 11:57:45;;;;;;;;;4.00;4.00;;;;;24.91;53.98;101192.59;4903984;29;45406;-75
2021/09/10 12:00:31;;;;;;;;;4.25;3.00;;;;;24.75;54.30;101193.06;4904038;28;46435;-75
2021/09/10 12:03:02;;;;;;;;;5.50;4.50;;;;;24.62;54.72;101202.19;4885691;29;45499;-75
2021/09/10 12:05:27;;;;;;;;;5.25;5.25;;;;;24.54;54.79;101208.25;4903538;29;45418;-75
2021/09/10 12:07:53;;;;;;;;;4.75;4.75;;;;;24.48;54.83;101208.75;4904203;29;45253;-75
2021/09/10 12:10:33;;;;;;;;;4.00;4.00;;;;;24.43;55.09;101206.47;4892669;29;45703;-75
2021/09/10 12:13:09;;;;;;;;;3.00;3.00;;;;;24.41;55.28;101200.38;4892595;29;45455;-75
2021/09/10 12:15:35;;;;;;;;;3.25;3.25;;;;;24.40;55.63;101206.72;4901224;29;45442;-75
2021/09/10 12:18:11;;;;;;;;;5.25;4.75;;;;;24.37;55.70;101194.41;4901814;29;45382;-75
2021/09/10 12:20:37;;;;;;;;;3.75;3.75;;;;;24.38;55.68;101192.56;4900722;29;45515;-75
2021/09/10 12:23:03;;;;;;;;;4.50;3.50;;;;;24.38;55.81;101197.94;4899055;29;46024;-75
2021/09/10 12:25:38;;;;;;;;;4.00;3.00;;;;;24.37;55.78;101199.78;4892269;29;45843;-75
2021/09/10 12:28:07;;;;;;;;;2.00;2.00;;;;;24.36;55.88;101191.88;4885557;29;47549;-75
2021/09/10 12:30:32;;;;;;;;;5.25;3.00;;;;;24.41;55.83;101192.31;4902166;29;46320;-75
2021/09/10 12:32:58;;;;;;;;;3.50;2.75;;;;;24.48;55.64;101193.50;4902313;29;45680;-75
2021/09/10 12:35:26;;;;;;;;;7.50;4.00;;;;;24.52;55.92;101194.06;4902901;29;45372;-75
2021/09/10 12:38:02;;;;;;;;;3.00;3.00;;;;;24.53;55.94;101192.25;4902281;29;47403;-75
2021/09/10 12:40:32;;;;;;;;;5.00;3.25;;;;;24.51;56.27;101197.75;4901519;29;45730;-75
2021/09/10 12:42:58;;;;;;;;;5.00;5.00;;;;;24.47;56.19;101197.16;4884865;29;45201;-75
2021/09/10 12:45:24;;;;;;;;;3.00;3.00;;;;;24.42;56.06;101195.88;4903233;29;45407;-74
2021/09/10 12:47:50;;;;;;;;;3.00;2.00;;;;;24.41;56.22;101196.84;4898915;28;47148;-75
2021/09/10 12:50:16;;;;;;;;;4.00;4.00;;;;;24.38;56.94;101206.88;4902660;28;46363;-75
2021/09/10 12:52:42;;;;;;;;;5.00;3.00;;;;;24.39;57.01;101189.78;4903054;29;45321;-75
2021/09/10 12:55:09;;;;;;;;;3.75;2.25;;;;;24.42;56.27;101194.00;4900554;29;45419;-75
2021/09/10 12:57:34;;;;;;;;;3.00;3.00;;;;;24.47;57.03;101174.84;4902921;29;45479;-75
2021/09/10 13:00:00;;;;;;;;;4.50;3.50;;;;;24.58;56.57;101185.50;4902824;28;45431;-74
2021/09/10 13:02:26;;;;;;;;;2.25;2.25;;;;;24.68;55.97;101190.06;4901500;28;45346;-74
2021/09/10 13:04:51;;;;;;;;;3.00;2.75;;;;;24.76;55.34;101179.50;4901823;29;45173;-75
2021/09/10 13:07:17;;;;;;;;;4.00;4.00;;;;;24.79;55.10;101189.16;4887563;29;46440;-74
2021/09/10 13:09:42;;;;;;;;;4.00;4.00;;;;;24.74;55.10;101189.56;4884858;29;48308;-75
2021/09/10 13:12:08;;;;;;;;;2.75;2.75;;;;;24.68;55.04;101188.25;4885740;29;46006;-74
2021/09/10 13:14:33;;;;;;;;;4.00;4.00;;;;;24.62;55.64;101202.19;4901642;29;45441;-74
2021/09/10 13:16:59;;;;;;;;;3.25;3.25;;;;;24.50;55.93;101210.34;4902669;29;45370;-74
2021/09/10 13:19:24;;;;;;;;;4.00;4.00;;;;;24.43;56.95;101219.03;4885479;29;46336;-76
2021/09/10 13:21:50;;;;;;;;;7.50;2.50;;;;;24.37;58.31;101233.88;4885637;29;45306;-76
2021/09/10 13:24:19;;;;;;;;;6.50;5.00;;;;;24.20;61.60;101243.31;4902324;29;45422;-76
2021/09/10 13:26:45;;;;;;;;;3.50;2.50;;;;;24.05;61.85;101271.28;4885625;29;46106;-90
2021/09/10 13:29:11;;;;;;;;;4.25;4.25;;;;;23.96;61.60;101268.50;4902679;29;45685;-91
2021/09/10 13:31:36;;;;;;;;;4.25;4.25;;;;;23.86;62.50;101263.06;4886005;29;45210;-94
2021/09/10 13:34:01;;;;;;;;;4.25;2.00;;;;;23.76;62.65;101255.75;4901804;29;45488;-92
2021/09/10 13:36:27;;;;;;;;;3.25;3.00;;;;;23.74;62.99;101252.34;4902226;29;45243;-86
2021/09/10 13:38:53;;;;;;;;;3.75;3.00;;;;;23.75;63.86;101254.06;4902456;29;46801;-87
2021/09/10 13:41:18;;;;;;;;;3.75;2.75;;;;;23.72;63.66;101240.91;4885433;29;45363;-87
2021/09/10 13:43:44;;;;;;;;;7.25;4.00;;;;;23.74;63.65;101241.63;4901707;29;45371;-86
2021/09/10 13:46:09;;;;;;;;;3.00;3.00;;;;;23.78;63.52;101240.38;4897827;29;45316;-86
2021/09/10 13:48:35;;;;;;;;;4.25;4.25;;;;;23.77;64.70;101233.31;4890855;29;45506;-87
2021/09/10 13:51:00;;;;;;;;;4.25;4.25;;;;;23.77;64.22;101225.28;4884168;29;45492;-87
2021/09/10 13:53:26;;;;;;;;;5.50;4.00;;;;;23.75;63.82;101221.00;4901767;29;45309;-86
2021/09/10 13:55:51;;;;;;;;;3.50;2.25;;;;;23.77;64.43;101227.09;4893822;29;45840;-86
2021/09/10 13:58:16;;;;;;;;;3.00;3.00;;;;;23.77;64.38;101222.59;4900954;29;45516;-84
2021/09/10 14:00:42;;;;;;;;;5.25;5.25;;;;;23.79;64.53;101220.63;4902196;29;45412;-85
2021/09/10 14:03:07;;;;;;;;;3.25;3.25;;;;;23.82;64.73;101215.03;4902125;29;45451;-85
2021/09/10 14:05:33;;;;;;;;;1.75;1.75;;;;;23.80;64.64;101216.97;4901791;29;45442;-85
2021/09/10 14:07:59;;;;;;;;;5.50;3.00;;;;;23.83;64.39;101214.03;4901590;29;46617;-85
2021/09/10 14:10:24;;;;;;;;;5.50;4.75;;;;;23.77;64.55;101209.19;4900686;29;45666;-85
2021/09/10 14:12:50;;;;;;;;;4.00;4.00;;;;;23.77;64.42;101206.50;4901174;29;45214;-85
2021/09/10 14:15:16;;;;;;;;;2.75;2.75;;;;;23.79;64.39;101212.56;4881943;29;47770;-85
2021/09/10 14:17:41;;;;;;;;;3.50;3.50;;;;;23.76;64.96;101204.78;4903312;29;46123;-85
2021/09/10 14:20:07;;;;;;;;;1.00;1.00;;;;;23.77;66.47;101200.28;4884650;29;45349;-84
2021/09/10 14:22:32;;;;;;;;;3.00;2.75;;;;;23.83;66.56;101200.59;4904637;29;45458;-83
2021/09/10 14:24:58;;;;;;;;;3.00;3.00;;;;;23.79;66.19;101198.31;4905095;29;45239;-83
2021/09/10 14:27:23;;;;;;;;;3.50;3.50;;;;;23.80;67.30;101190.16;4904528;29;45554;-84
2021/09/10 14:29:49;;;;;;;;;3.50;3.50;;;;;23.78;65.81;101185.88;4888192;29;45904;-89
2021/09/10 14:32:14;;;;;;;;;2.50;2.50;;;;;23.81;65.75;101197.19;4905059;29;45526;-89
2021/09/10 14:34:40;;;;;;;;;4.00;3.00;;;;;23.81;65.08;101196.34;4904953;29;45591;-89
2021/09/10 14:37:05;;;;;;;;;4.75;4.75;;;;;23.77;65.64;101197.59;4887558;29;47075;-88
2021/09/10 14:39:32;;;;;;;;;3.75;3.25;;;;;23.75;66.16;101194.19;4905184;29;45423;-88
2021/09/10 14:41:57;;;;;;;;;4.25;3.75;;;;;23.78;65.41;101202.81;4887057;29;45360;-88
2021/09/10 14:44:23;;;;;;;;;3.25;3.00;;;;;23.80;65.66;101198.19;4903759;29;45454;-88
2021/09/10 14:46:48;;;;;;;;;3.00;3.00;;;;;23.79;65.69;101191.13;4888012;29;47220;-88
2021/09/10 14:49:13;;;;;;;;;4.50;4.00;;;;;23.85;67.49;101203.19;4887862;29;46418;-88
2021/09/10 14:51:39;;;;;;;;;3.75;2.25;;;;;23.85;68.18;101199.63;4905297;29;45266;-88
2021/09/10 14:54:04;;;;;;;;;4.75;3.50;;;;;23.85;67.81;101196.94;4903772;29;45289;-89
2021/09/10 14:56:30;;;;;;;;;6.25;3.75;;;;;23.82;66.42;101204.28;4904635;29;46336;-88
2021/09/10 14:59:13;;;;;;;;;3.00;3.00;;;;;23.79;67.55;101207.22;4905195;29;45254;-88
2021/09/10 15:01:40;;;;;;;;;3.00;3.00;;;;;23.73;66.77;101201.50;4905016;29;45305;-88
2021/09/10 15:04:06;;;;;;;;;3.50;3.00;;;;;23.76;67.50;101203.91;4886781;29;46335;-88
2021/09/10 15:06:31;;;;;;;;;7.75;6.00;;;;;23.74;68.77;101208.56;4887612;29;47108;-88
2021/09/10 15:08:57;;;;;;;;;4.50;4.50;;;;;23.73;68.19;101202.34;4904486;29;45230;-88
2021/09/10 15:11:22;;;;;;;;;4.25;3.75;;;;;23.76;68.07;101215.50;4904606;29;45229;-88
2021/09/10 15:13:49;;;;;;;;;3.25;3.25;;;;;23.77;67.85;101208.31;4887710;29;46066;-88
2021/09/10 15:16:15;;;;;;;;;3.75;3.25;;;;;23.78;68.17;101210.88;4904776;29;46257;-88
2021/09/10 15:18:40;;;;;;;;;5.00;3.25;;;;;23.80;67.30;101203.56;4903724;29;45456;-88
2021/09/10 15:21:07;;;;;;;;;3.00;3.00;;;;;23.87;66.89;101205.72;4903370;29;45443;-88
2021/09/10 15:23:32;;;;;;;;;5.75;3.50;;;;;23.86;66.43;101206.69;4904639;29;45449;-87
2021/09/10 15:25:58;;;;;;;;;2.00;2.00;;;;;23.85;66.66;101205.00;4904228;29;45358;-87
2021/09/10 15:28:23;;;;;;;;;5.00;3.00;;;;;23.83;65.78;101197.91;4903418;29;45494;-88
2021/09/10 15:30:49;;;;;;;;;4.00;3.75;;;;;23.91;66.71;101217.91;4886806;29;45264;-88
2021/09/10 15:33:14;;;;;;;;;4.00;4.00;;;;;23.89;67.23;101215.34;4887051;29;45962;-87
2021/09/10 15:35:40;;;;;;;;;4.50;3.00;;;;;23.87;66.07;101217.31;4887150;29;46925;-88
2021/09/10 15:38:10;;;;;;;;;6.00;4.25;;;;;23.87;66.00;101221.81;4904168;29;45222;-88
2021/09/10 15:40:36;;;;;;;;;4.00;4.00;;;;;23.78;66.69;101213.53;4904150;29;45431;-88
2021/09/10 15:43:01;;;;;;;;;2.25;2.25;;;;;23.77;65.56;101213.69;4887362;29;45484;-88
2021/09/10 15:45:27;;;;;;;;;4.00;4.00;;;;;23.75;66.84;101205.78;4887050;29;46034;-87
2021/09/10 15:47:53;;;;;;;;;4.75;4.00;;;;;23.77;66.67;101217.22;4886473;29;45487;-88
2021/09/10 15:50:18;;;;;;;;;4.50;4.50;;;;;23.79;67.22;101217.09;4904333;29;45346;-88
2021/09/10 15:52:44;;;;;;;;;6.00;3.50;;;;;23.75;66.19;101218.31;4904254;29;45223;-87
2021/09/10 15:55:14;;;;;;;;;4.50;3.00;;;;;23.73;66.16;101212.25;4904109;29;46453;-87
2021/09/10 15:57:42;;;;;;;;;4.25;4.25;;;;;23.68;66.16;101207.25;4903741;29;45529;-87
2021/09/10 16:00:08;;;;;;;;;5.00;5.00;;;;;23.71;67.19;101215.88;4886910;29;45439;-87
2021/09/10 16:02:36;;;;;;;;;3.00;3.00;;;;;23.63;67.10;101209.47;4886368;29;46664;-87
2021/09/10 16:05:04;;;;;;;;;5.00;4.00;;;;;23.60;66.90;101218.59;4902143;29;47267;-87
2021/09/10 16:07:29;;;;;;;;;4.00;4.00;;;;;23.54;66.99;101214.59;4886344;29;45602;-88
2021/09/10 16:09:54;;;;;;;;;3.25;3.25;;;;;23.50;65.69;101226.56;4903943;29;45319;-87
2021/09/10 16:12:20;;;;;;;;;4.00;4.00;;;;;23.44;65.85;101227.00;4903719;29;45302;-87
2021/09/10 16:14:45;;;;;;;;;6.50;5.00;;;;;23.34;69.39;101233.13;4886864;29;46873;-89
2021/09/10 16:17:10;;;;;;;;;7.00;5.00;;;;;22.97;72.96;101236.88;4903480;29;45402;-89
2021/09/10 16:19:36;;;;;;;;;9.25;7.00;;;;;22.50;72.89;101235.06;4903377;29;45437;-88
2021/09/10 16:22:01;;;;;;;;;6.00;6.00;;;;;22.17;72.43;101234.84;4886587;29;46975;-88
2021/09/10 16:24:26;;;;;;;;;6.00;6.00;;;;;21.95;73.08;101235.59;4903501;29;46397;-88
2021/09/10 16:26:52;;;;;;;;;5.00;5.00;;;;;21.86;73.50;101237.97;4885913;29;45539;-88
2021/09/10 16:29:17;;;;;;;;;8.25;6.00;;;;;21.87;72.88;101242.34;4903883;29;45272;-88
2021/09/10 16:31:43;;;;;;;;;7.25;7.00;;;;;21.87;73.77;101245.03;4903558;29;45357;-89
2021/09/10 16:34:08;;;;;;;;;7.00;7.00;;;;;21.84;73.10;101245.22;4903491;29;46287;-88
2021/09/10 16:36:33;;;;;;;;;5.00;5.00;;;;;21.92;73.17;101256.25;4902997;29;45201;-87
2021/09/10 16:39:05;;;;;;;;;5.50;4.00;;;;;21.95;73.16;101260.53;4901905;29;45596;-88
2021/09/10 16:41:34;;;;;;;;;9.25;6.50;;;;;22.02;73.45;101264.47;4885811;29;46409;-88
2021/09/10 16:43:59;;;;;;;;;9.75;6.75;;;;;22.07;73.78;101268.59;4886142;29;47274;-88